Aktualne dane pomiarowe

Uwaga, wersja testowa! Automatyczne pobieranie danych za pomocą narzędzi lub skryptów to umożliwiających jest zabronione.

Dane meteo z obszaru Polski uzyskane na podstawie depesz SYNOP pobieranych co godzinę z NWS. Najedź myszką na symbol przedstawiony w tabeli, aby uzyskać informacje co do jego znaczenia. Prosimy pamiętać, że to testowa wersja strony, która jeszcze nie jest ukończona. Stworzono również jest krótki FAQ dotyczący korzystania z tej podstrony Anomalie temperatury w chwili obecnej odniesione są do okresu referencyjnego 1951-2016. Okres ten będzie później zmieniony na 1981-2010. Kliknij ikonę aby pobrać plik CSV. Kliknij ikonę aby wygenerować mapę synoptyczną dla danego terminu.

Wybierz Datę:    

        

Sandomierz (12585)

Dane terminowe dla wybranej stacji. Kliknij datę, aby otrzymać dane z tego terminu dla wszystkich stacji.

TemperaturaZachmurzenieWiatrCiśnienieOpadyPogoda
 Data t td wb tx tn tg rh  Nt Nl Cl Cm Ch ws wd g1 g2 wx mslp ppp ch 24h 12h t ww ww w1 w2  
2019-07-12 23:00:00 17.0 10.6 13.0--- 6650.0--2wx--21009.5 983.9 -0.3---------
2019-07-12 22:00:00 16.8 9.7 12.5--- 6335.0--2wx---1009.8 984.1 -0.1---------
2019-07-12 21:00:00 17.8 9.9 13.0--- 6040.0--2wx--21009.8 984.2 0.4---------
2019-07-12 20:00:00 18.5 10.1 13.4--- 5845.0--2wx--21009.7 984.2 0.4---------
2019-07-12 19:00:00 19.1 10.6 13.9--- 5826.0--2wx--21009.7 984.2 0.3---------
2019-07-12 18:00:00 20.8 10.9 14.8 24.4 15.8- 5322.0--2wx--21009.1 983.8 -0.3- 0.012------
2019-07-12 17:00:00 21.6 10.4 14.9--- 4935.0--2wx--21009.0 983.8 -0.8---------
2019-07-12 16:00:00 23.6 9.2 15.2--- 4035.0--3wx--31009.0 983.9 -0.9---------
2019-07-12 15:00:00 23.6 8.4 14.9--- 3835.0--2wx--21009.2 984.1 -0.8---------
2019-07-12 14:00:00 23.0 8.3 14.6--- 3935.0--2wx--21009.7 984.6 -0.8---------
2019-07-12 13:00:00 22.3 7.3 13.9--- 3835.0--2wx--21010.0 984.8 -0.8---------
2019-07-12 12:00:00 23.0 7.9 14.4--- 3830.0--3wx--31010.0 984.9 -0.9- 0.06------
2019-07-12 11:00:00 22.7 8.0 14.3--- 3935.0--2wx--21010.6 985.4 -0.6---------
2019-07-12 10:00:00 21.8 6.5 13.3--- 3745.0--2wx--21010.9 985.6 -0.6---------
2019-07-12 09:00:00 21.1 10.0 14.5--- 4935.0--2wx---1011.1 985.8 -0.5---------
2019-07-12 08:00:00 19.5 10.2 13.9--- 5535.0--2wx--21011.5 986.0 -0.1---------
2019-07-12 07:00:00 17.9 12.1 14.2--- 6926.0--2wx--21011.8 986.2 0.1---------
2019-07-12 06:00:00 15.9 11.1 12.8 16.2 9.4 7 7330.0--1wx--11012.1 986.3 0.3- 0.012----- 7.9
2019-07-12 05:00:00 12.5 9.3 10.4--- 8135.0--2wx---1012.2 986.1 0.2---------
2019-07-12 04:00:00 10.5 7.7 8.7--- 8335.0--2wx--21012.4 986.1 0.0---------
2019-07-12 03:00:00 9.6 6.9 7.9--- 8335.0--2wx--21012.4 986.0 -0.2---------
2019-07-12 02:00:00 10.0 7.1 8.1--- 8235.0--1wx--11012.2 985.9 -0.7---------
2019-07-12 01:00:00 10.8 7.3 8.6--- 7945.0--2wx--21012.4 986.1 -0.5---------
2019-07-12 00:00:00 12.0 7.7 9.3--- 7545.0--2wx--21012.4 986.2 -0.4- 0.06------
2019-07-11 23:00:00 12.1 8.2 9.6--- 7750.0--3wx--31012.8 986.6 0.2---------
2019-07-11 22:00:00 12.4 8.7 10.0--- 7850.0--2wx--21012.7 986.6 0.5---------
2019-07-11 21:00:00 12.1 8.2 9.6--- 7745.0--2wx--21012.8 986.6 0.7---------
2019-07-11 20:00:00 13.1 7.7 9.8--- 7050.0--2wx--21012.5 986.4 0.7---------
2019-07-11 19:00:00 14.1 8.3 10.6--- 6845.0--1wx--11012.1 986.1 0.5---------
2019-07-11 18:00:00 16.2 8.9 11.8 19.6 12.7- 6245.0--2wx--21011.7 985.9 0.4--12------
2019-07-11 17:00:00 17.7 9.3 12.7--- 5845.0--3wx--31011.3 985.7 0.3---------
2019-07-11 16:00:00 18.0 9.3 12.8--- 5740.0--3wx--31011.2 985.6 0.5---------
2019-07-11 15:00:00 18.7 8.9 13.0--- 5340.0--3wx--31011.0 985.5 0.1---------
2019-07-11 14:00:00 18.6 9.1 13.0--- 5430.0--4wx--41010.9 985.4 0.0---------
2019-07-11 13:00:00 19.4 8.4 13.1--- 4930.0--3wx--31010.6 985.1 -0.2---------
2019-07-11 12:00:00 17.1 9.5 12.5--- 6135.0--4wx-1141011.1 985.4 -0.3--6------
2019-07-11 11:00:00 17.4 8.5 12.2--- 5629.0--4wx--41011.1 985.4 -0.2---------
2019-07-11 10:00:00 15.8 9.9 12.1--- 6850.0--5wx111151011.1 985.3 -0.2---------
2019-07-11 09:00:00 16.1 10.0 12.3--- 6735.0--4wx-841011.5 985.7 0.3---------
2019-07-11 08:00:00 15.2 10.6 12.3--- 7445.0--4wx--41011.5 985.6 0.1---------
2019-07-11 07:00:00 14.0 10.2 11.5--- 7845.0--4wx---1011.5 985.5 0.0---------
2019-07-11 06:00:00 13.0 11.1 11.7 15.1 11.5 11 8845.0--2wx--21011.5 985.4 0.2 0.7 0.612wx---- 2.1
2019-07-11 05:00:00 11.7 10.8 11.0--- 9419.0--2wx--21011.7 985.5 0.4---wx-----
2019-07-11 04:00:00 12.0 9.9 10.6--- 8745.0--2wx--21011.6 985.5 0.1---------
2019-07-11 03:00:00 12.8 9.4 10.6--- 8050.0--3wx--31011.3 985.2 -0.6---wx-----
2019-07-11 02:00:00 12.7 9.1 10.4--- 7924.0--5wx--51011.2 985.1 -0.7---wx-----
2019-07-11 01:00:00 11.8 9.0 10.0--- 8350.0--3wx--31011.6 985.4 -0.5---------
2019-07-11 00:00:00 11.9 9.1 10.1--- 8345.0--4wx--41012.0 985.8 -0.3--6------
1.3 ms

 

Print Friendly, PDF & Email